Bennett, Iowa
Current Conditions -  °F | °C
As of 12:52 PM on Tuesday 27 Jan 2015 (Local Time) from KDVN Reporting Station
Overcast Overcast  
Wind Chill: 20°   Ceiling: 1500
Heat Index: 28°   Visibility: 8mi
Dew Point: 21°   Wind: 8mph
Humidity: 75%   Direction: 60°ENE
Pressure: 30.19"   Gusts: NA
Location:  41.74°N, 90.97°W
Report Text: KDVN 271852Z AUTO 06007KT 8SM OVC015 M02/M06 A3019 RMK AO2 SLP233 T10221061
Loading
Personal Weather Stations






























Interactive Weather Map New forecast layout! Learn more

10-Day Weather Forecast

Advertisements
Track Severe Weather on mobile